Time;durP1;ratioP1;P1;durP2;ratioP2;P2;SDS_P1;SDS_P2;PMS_P1;PMS_P2;Temp;Humidity;BMP_temperature;BMP_pressure;BME280_temperature;BME280_humidity;BME280_pressure;Samples;Min_cycle;Max_cycle;Signal;HPM_P1;HPM_P2
2022/03/19 00:02:34;;;;;;;17.97;10.77;;;;;;;;;;6184013;28;20230;-75
2022/03/19 00:05:56;;;;;;;14.07;9.87;;;;;;;;;;6182236;28;20348;-76
2022/03/19 00:09:17;;;;;;;18.60;11.17;;;;;;;;;;6181632;28;20269;-77
2022/03/19 00:12:39;;;;;;;20.03;11.80;;;;;;;;;;6181316;28;20234;-75
2022/03/19 00:16:00;;;;;;;18.00;11.23;;;;;;;;;;6178442;28;20588;-77
2022/03/19 00:19:20;;;;;;;17.70;9.90;;;;;;;;;;6183618;28;20229;-75
2022/03/19 00:22:44;;;;;;;19.70;10.70;;;;;;;;;;6180710;28;20234;-76
2022/03/19 00:26:06;;;;;;;14.83;9.60;;;;;;;;;;6179500;28;20233;-76
2022/03/19 00:29:27;;;;;;;19.03;10.80;;;;;;;;;;6183045;28;20234;-77
2022/03/19 00:32:48;;;;;;;14.07;9.80;;;;;;;;;;6177079;28;20557;-77
2022/03/19 00:36:08;;;;;;;18.07;11.47;;;;;;;;;;6182732;28;20230;-76
2022/03/19 00:39:31;;;;;;;19.07;10.13;;;;;;;;;;6173317;28;20230;-75
2022/03/19 00:42:52;;;;;;;18.07;11.03;;;;;;;;;;6184223;28;20235;-76
2022/03/19 00:46:14;;;;;;;18.47;9.53;;;;;;;;;;6166164;28;20234;-75
2022/03/19 00:49:35;;;;;;;17.33;10.87;;;;;;;;;;6172718;28;21613;-75
2022/03/19 00:52:55;;;;;;;17.17;9.40;;;;;;;;;;6180765;28;20560;-76
2022/03/19 00:56:17;;;;;;;20.20;9.20;;;;;;;;;;6183976;28;20230;-77
2022/03/19 00:59:38;;;;;;;13.47;9.03;;;;;;;;;;6177306;28;20234;-76
2022/03/19 01:02:59;;;;;;;15.23;8.40;;;;;;;;;;6181838;28;20226;-77
2022/03/19 01:06:20;;;;;;;13.47;8.60;;;;;;;;;;6184016;28;21236;-75
2022/03/19 01:09:41;;;;;;;16.40;7.93;;;;;;;;;;6183665;28;20697;-75
2022/03/19 01:13:05;;;;;;;12.73;7.73;;;;;;;;;;6177676;28;20550;-76
2022/03/19 01:16:26;;;;;;;11.03;7.03;;;;;;;;;;6173233;28;20753;-75
2022/03/19 01:19:54;;;;;;;17.67;9.67;;;;;;;;;;6184664;28;20230;-77
2022/03/19 01:23:14;;;;;;;13.57;7.80;;;;;;;;;;6169913;28;20246;-78
2022/03/19 01:26:36;;;;;;;18.73;7.90;;;;;;;;;;6176557;28;20227;-75
2022/03/19 01:29:59;;;;;;;10.90;6.77;;;;;;;;;;6182854;28;20230;-76
2022/03/19 01:33:20;;;;;;;11.60;6.87;;;;;;;;;;6180368;28;20238;-76
2022/03/19 01:36:41;;;;;;;21.37;8.50;;;;;;;;;;6182968;28;20235;-76
2022/03/19 01:40:02;;;;;;;13.70;8.63;;;;;;;;;;6182476;28;20229;-76
2022/03/19 01:43:22;;;;;;;11.07;7.17;;;;;;;;;;6167875;28;20226;-77
2022/03/19 01:46:58;;;;;;;10.37;8.23;;;;;;;;;;6177784;28;22075;-77
2022/03/19 01:50:20;;;;;;;15.30;8.63;;;;;;;;;;6181392;28;20584;-75
2022/03/19 01:53:42;;;;;;;12.93;7.10;;;;;;;;;;6178440;28;20229;-75
2022/03/19 01:57:04;;;;;;;12.23;7.30;;;;;;;;;;6183640;28;20226;-76
2022/03/19 02:00:26;;;;;;;12.10;7.10;;;;;;;;;;6165185;28;20231;-75
2022/03/19 02:03:49;;;;;;;12.63;7.77;;;;;;;;;;6183794;28;20266;-77
2022/03/19 02:07:11;;;;;;;12.13;6.43;;;;;;;;;;6168214;28;20230;-75
2022/03/19 02:10:35;;;;;;;11.63;6.37;;;;;;;;;;6161449;28;20231;-77
2022/03/19 02:13:55;;;;;;;12.70;6.97;;;;;;;;;;6181317;28;20611;-75
2022/03/19 02:17:16;;;;;;;14.07;7.37;;;;;;;;;;6168724;28;20233;-76
2022/03/19 02:20:39;;;;;;;10.63;6.27;;;;;;;;;;6185077;28;20233;-77
2022/03/19 02:27:39;;;;;;;12.23;6.73;;;;;;;;;;6167259;28;20233;-75
2022/03/19 02:31:00;;;;;;;11.60;5.97;;;;;;;;;;6184117;28;20226;-76
2022/03/19 02:34:21;;;;;;;9.53;5.13;;;;;;;;;;6184754;28;20230;-76
2022/03/19 02:37:43;;;;;;;13.27;7.17;;;;;;;;;;6185753;28;20229;-75
2022/03/19 02:41:05;;;;;;;18.43;6.77;;;;;;;;;;6184219;28;20230;-76
2022/03/19 02:44:26;;;;;;;17.80;7.13;;;;;;;;;;6183561;28;20230;-76
2022/03/19 02:47:59;;;;;;;15.70;6.23;;;;;;;;;;6183545;28;20332;-76
2022/03/19 02:51:20;;;;;;;10.33;5.63;;;;;;;;;;6182582;28;20221;-75
2022/03/19 02:54:40;;;;;;;14.63;6.03;;;;;;;;;;6184449;28;20218;-76
2022/03/19 02:58:03;;;;;;;12.67;5.37;;;;;;;;;;6186975;28;20529;-75
2022/03/19 03:01:23;;;;;;;8.67;4.73;;;;;;;;;;6178442;28;20234;-76
2022/03/19 03:04:44;;;;;;;8.60;5.60;;;;;;;;;;6184056;28;20330;-77
2022/03/19 03:08:05;;;;;;;13.40;5.50;;;;;;;;;;6188423;28;20241;-75
2022/03/19 03:11:27;;;;;;;17.97;6.83;;;;;;;;;;6174799;28;20577;-74
2022/03/19 03:14:49;;;;;;;14.33;5.47;;;;;;;;;;6187591;28;20593;-77
2022/03/19 03:18:10;;;;;;;8.90;5.43;;;;;;;;;;6178626;28;21143;-73
2022/03/19 03:21:31;;;;;;;13.93;5.37;;;;;;;;;;6184502;28;20222;-75
2022/03/19 03:24:52;;;;;;;9.50;4.73;;;;;;;;;;6181680;28;20226;-75
2022/03/19 03:28:13;;;;;;;14.40;5.93;;;;;;;;;;6186462;28;20230;-76
2022/03/19 03:31:37;;;;;;;11.53;5.10;;;;;;;;;;6183135;28;20260;-76
2022/03/19 03:34:58;;;;;;;9.67;5.70;;;;;;;;;;6182525;28;20225;-75
2022/03/19 03:38:19;;;;;;;8.90;4.20;;;;;;;;;;6169230;28;20233;-75
2022/03/19 03:41:40;;;;;;;14.90;6.10;;;;;;;;;;6182821;28;20642;-76
2022/03/19 03:45:01;;;;;;;10.40;4.53;;;;;;;;;;6181349;28;20241;-75
2022/03/19 03:48:23;;;;;;;11.53;4.90;;;;;;;;;;6184399;28;20234;-75
2022/03/19 03:51:44;;;;;;;8.67;5.17;;;;;;;;;;6184531;28;20624;-76
2022/03/19 03:55:07;;;;;;;11.20;4.90;;;;;;;;;;6183520;28;20330;-76
2022/03/19 03:58:28;;;;;;;10.17;5.23;;;;;;;;;;6185923;28;20234;-77
2022/03/19 04:01:49;;;;;;;11.20;5.20;;;;;;;;;;6186668;28;20233;-76
2022/03/19 04:05:12;;;;;;;8.30;4.60;;;;;;;;;;6184868;28;20824;-76
2022/03/19 04:08:33;;;;;;;14.63;5.70;;;;;;;;;;6184280;28;20655;-76
2022/03/19 04:11:54;;;;;;;11.03;5.37;;;;;;;;;;6182240;28;20253;-76
2022/03/19 04:15:15;;;;;;;11.30;4.80;;;;;;;;;;6184288;28;20593;-76
2022/03/19 04:18:36;;;;;;;10.37;4.73;;;;;;;;;;6182972;28;21603;-76
2022/03/19 04:21:57;;;;;;;9.73;4.10;;;;;;;;;;6180413;28;20234;-76
2022/03/19 04:25:20;;;;;;;12.03;5.37;;;;;;;;;;6180540;28;20497;-76
2022/03/19 04:28:41;;;;;;;13.30;6.43;;;;;;;;;;6181284;28;20489;-76
2022/03/19 04:32:01;;;;;;;11.93;6.47;;;;;;;;;;6179897;28;20305;-75
2022/03/19 04:39:05;;;;;;;12.23;6.17;;;;;;;;;;6185213;28;20257;-75
2022/03/19 04:42:25;;;;;;;14.00;7.07;;;;;;;;;;6177768;28;20226;-76
2022/03/19 04:45:47;;;;;;;9.97;5.70;;;;;;;;;;6181399;28;20234;-74
2022/03/19 04:49:08;;;;;;;9.17;5.50;;;;;;;;;;6181909;28;20312;-75
2022/03/19 04:52:29;;;;;;;14.70;6.87;;;;;;;;;;6179368;28;20234;-75
2022/03/19 04:55:52;;;;;;;11.80;5.60;;;;;;;;;;6177254;28;20234;-75
2022/03/19 04:59:15;;;;;;;10.43;5.37;;;;;;;;;;6180559;28;20234;-75
2022/03/19 05:02:36;;;;;;;11.67;6.20;;;;;;;;;;6165549;28;20527;-76
2022/03/19 05:05:57;;;;;;;11.67;6.60;;;;;;;;;;6182640;28;20238;-76
2022/03/19 05:12:58;;;;;;;14.30;6.20;;;;;;;;;;6178641;28;20548;-75
2022/03/19 05:16:19;;;;;;;9.93;5.87;;;;;;;;;;6167195;28;20225;-75
2022/03/19 05:19:39;;;;;;;11.50;5.80;;;;;;;;;;6181790;28;20222;-76
2022/03/19 05:23:00;;;;;;;6.57;4.03;;;;;;;;;;6185608;28;20234;-75
2022/03/19 05:26:21;;;;;;;15.00;6.23;;;;;;;;;;6181837;28;20230;-76
2022/03/19 05:29:44;;;;;;;13.23;6.20;;;;;;;;;;6181792;28;20233;-76
2022/03/19 05:33:05;;;;;;;14.60;5.53;;;;;;;;;;6182067;28;20237;-76
2022/03/19 05:36:27;;;;;;;12.43;5.00;;;;;;;;;;6180110;28;20233;-76
2022/03/19 05:39:48;;;;;;;8.97;5.07;;;;;;;;;;6183371;28;20226;-75
2022/03/19 05:43:09;;;;;;;9.23;5.17;;;;;;;;;;6169139;28;20218;-76
2022/03/19 05:46:32;;;;;;;9.07;4.73;;;;;;;;;;6168447;28;20234;-76
2022/03/19 05:49:52;;;;;;;8.90;4.87;;;;;;;;;;6179423;28;20227;-76
2022/03/19 05:53:13;;;;;;;8.13;4.87;;;;;;;;;;6187902;28;20254;-76
2022/03/19 05:56:34;;;;;;;9.80;5.23;;;;;;;;;;6186181;28;20229;-76
2022/03/19 05:59:55;;;;;;;10.13;5.00;;;;;;;;;;6188937;28;20226;-75
2022/03/19 06:03:19;;;;;;;11.20;5.03;;;;;;;;;;6184519;28;20229;-76
2022/03/19 06:06:39;;;;;;;5.53;3.80;;;;;;;;;;6175362;28;20253;-75
2022/03/19 06:10:00;;;;;;;9.03;3.93;;;;;;;;;;6184477;28;20235;-75
2022/03/19 06:13:21;;;;;;;8.37;5.00;;;;;;;;;;6190273;28;20261;-76
2022/03/19 06:16:42;;;;;;;9.03;5.00;;;;;;;;;;6183767;28;20246;-76
2022/03/19 06:20:05;;;;;;;10.17;4.40;;;;;;;;;;6187619;28;20667;-76
2022/03/19 06:23:26;;;;;;;11.83;4.57;;;;;;;;;;6185822;28;20225;-76
2022/03/19 06:26:47;;;;;;;8.33;4.60;;;;;;;;;;6183646;28;20620;-76
2022/03/19 06:30:09;;;;;;;11.13;4.67;;;;;;;;;;6187238;28;20238;-75
2022/03/19 06:33:30;;;;;;;12.50;5.30;;;;;;;;;;6184562;28;20708;-77
2022/03/19 06:40:30;;;;;;;6.93;3.53;;;;;;;;;;6186143;28;20226;-77
2022/03/19 06:43:51;;;;;;;11.57;4.47;;;;;;;;;;6187784;28;20225;-76
2022/03/19 06:47:12;;;;;;;10.00;5.07;;;;;;;;;;6180447;28;20634;-75
2022/03/19 06:50:34;;;;;;;7.53;3.63;;;;;;;;;;6180871;28;20671;-76
2022/03/19 06:53:56;;;;;;;10.33;3.93;;;;;;;;;;6168200;28;20274;-76
2022/03/19 06:57:17;;;;;;;7.17;3.37;;;;;;;;;;6182116;28;20238;-77
2022/03/19 07:00:40;;;;;;;7.47;3.20;;;;;;;;;;6178450;28;20257;-75
2022/03/19 07:04:01;;;;;;;8.80;3.87;;;;;;;;;;6177536;28;20521;-76
2022/03/19 07:07:22;;;;;;;6.17;3.43;;;;;;;;;;6173064;28;20702;-76
2022/03/19 07:10:44;;;;;;;20.50;4.00;;;;;;;;;;6175461;28;20233;-76
2022/03/19 07:14:09;;;;;;;6.50;2.83;;;;;;;;;;6184895;28;20516;-76
2022/03/19 07:17:32;;;;;;;10.77;4.27;;;;;;;;;;6184072;28;20230;-77
2022/03/19 07:20:53;;;;;;;10.27;4.20;;;;;;;;;;6178371;28;20238;-77
2022/03/19 07:24:15;;;;;;;9.07;3.63;;;;;;;;;;6182554;28;20230;-77
2022/03/19 07:27:37;;;;;;;12.50;4.10;;;;;;;;;;6184435;28;20222;-75
2022/03/19 07:31:00;;;;;;;9.33;4.20;;;;;;;;;;6183366;28;20229;-76
2022/03/19 07:34:21;;;;;;;6.20;3.43;;;;;;;;;;6170067;28;20233;-76
2022/03/19 07:37:42;;;;;;;8.43;3.33;;;;;;;;;;6182338;28;20229;-76
2022/03/19 07:44:43;;;;;;;7.30;3.60;;;;;;;;;;6174514;28;20249;-77
2022/03/19 07:48:04;;;;;;;10.37;3.90;;;;;;;;;;6179353;28;20226;-77
2022/03/19 07:51:25;;;;;;;11.77;4.70;;;;;;;;;;6182385;28;21012;-77
2022/03/19 07:54:46;;;;;;;10.70;4.20;;;;;;;;;;6168565;28;20257;-75
2022/03/19 07:58:07;;;;;;;6.33;3.60;;;;;;;;;;6187481;28;20230;-76
2022/03/19 08:01:29;;;;;;;8.53;3.33;;;;;;;;;;6175002;28;20226;-76
2022/03/19 08:04:50;;;;;;;8.47;3.90;;;;;;;;;;6173452;28;20463;-74
2022/03/19 08:08:12;;;;;;;7.83;3.70;;;;;;;;;;6178008;28;20229;-76
2022/03/19 08:11:33;;;;;;;8.07;3.23;;;;;;;;;;6169766;28;20234;-74
2022/03/19 08:14:55;;;;;;;6.97;3.47;;;;;;;;;;6185182;28;20241;-76
2022/03/19 08:18:17;;;;;;;6.83;2.77;;;;;;;;;;6178457;28;20234;-76
2022/03/19 08:21:38;;;;;;;12.03;3.20;;;;;;;;;;6186019;28;20511;-75
2022/03/19 08:24:59;;;;;;;9.40;3.40;;;;;;;;;;6181864;28;20608;-77
2022/03/19 08:28:20;;;;;;;9.20;3.80;;;;;;;;;;6167883;28;20249;-76
2022/03/19 08:31:41;;;;;;;6.00;4.00;;;;;;;;;;6184094;28;20222;-76
2022/03/19 08:35:03;;;;;;;8.97;4.37;;;;;;;;;;6186033;28;20702;-76
2022/03/19 08:42:03;;;;;;;7.27;2.73;;;;;;;;;;6186134;28;20225;-76
2022/03/19 08:45:24;;;;;;;6.40;2.87;;;;;;;;;;6179236;28;20242;-75
2022/03/19 08:48:45;;;;;;;8.20;3.03;;;;;;;;;;6186039;28;20242;-75
2022/03/19 08:52:07;;;;;;;6.90;3.30;;;;;;;;;;6181464;28;20614;-75
2022/03/19 08:55:28;;;;;;;7.77;2.87;;;;;;;;;;6181496;28;20234;-76
2022/03/19 08:58:49;;;;;;;9.10;2.80;;;;;;;;;;6186899;28;20226;-75
2022/03/19 09:02:10;;;;;;;8.60;3.63;;;;;;;;;;6178750;28;20312;-74
2022/03/19 09:05:32;;;;;;;9.43;3.43;;;;;;;;;;6181341;28;20225;-76
2022/03/19 09:08:54;;;;;;;6.17;2.37;;;;;;;;;;6186218;28;20242;-76
2022/03/19 09:12:15;;;;;;;6.13;3.17;;;;;;;;;;6185092;28;20522;-76
2022/03/19 09:15:36;;;;;;;6.37;2.70;;;;;;;;;;6169408;28;20245;-74
2022/03/19 09:18:57;;;;;;;5.43;2.63;;;;;;;;;;6176584;28;20230;-73
2022/03/19 09:22:17;;;;;;;6.53;2.23;;;;;;;;;;6179521;28;20681;-72
2022/03/19 09:25:41;;;;;;;8.10;3.20;;;;;;;;;;6175162;28;20778;-75
2022/03/19 09:29:03;;;;;;;7.07;3.03;;;;;;;;;;6182555;28;20230;-73
2022/03/19 09:32:24;;;;;;;6.00;2.10;;;;;;;;;;6187874;28;20233;-75
2022/03/19 09:35:45;;;;;;;7.77;2.50;;;;;;;;;;6184288;28;20794;-74
2022/03/19 09:39:06;;;;;;;6.43;2.70;;;;;;;;;;6187458;28;20233;-75
2022/03/19 09:42:28;;;;;;;6.53;2.50;;;;;;;;;;6192400;28;20853;-73
2022/03/19 09:45:49;;;;;;;5.60;2.37;;;;;;;;;;6184728;28;20238;-74
2022/03/19 09:49:10;;;;;;;6.87;2.50;;;;;;;;;;6175254;28;20530;-76
2022/03/19 09:52:35;;;;;;;5.00;2.30;;;;;;;;;;6181432;28;20261;-76
2022/03/19 09:55:57;;;;;;;5.43;2.07;;;;;;;;;;6183677;28;20233;-75
2022/03/19 09:59:22;;;;;;;4.73;2.37;;;;;;;;;;6172317;28;20482;-76
2022/03/19 10:02:55;;;;;;;4.87;2.37;;;;;;;;;;6183800;28;20611;-77
2022/03/19 10:09:57;;;;;;;4.57;2.53;;;;;;;;;;6191103;28;20217;-77
2022/03/19 10:13:18;;;;;;;3.20;1.60;;;;;;;;;;6186621;28;20234;-75
2022/03/19 10:16:40;;;;;;;7.93;2.50;;;;;;;;;;6179456;28;20229;-74
2022/03/19 10:20:04;;;;;;;4.40;1.67;;;;;;;;;;6177961;28;20324;-75
2022/03/19 10:23:34;;;;;;;4.17;2.30;;;;;;;;;;6185510;28;20312;-75
2022/03/19 10:26:57;;;;;;;3.17;1.70;;;;;;;;;;6178543;28;20230;-77
2022/03/19 10:30:19;;;;;;;2.43;1.47;;;;;;;;;;6179244;28;20233;-75
2022/03/19 10:33:42;;;;;;;2.87;1.40;;;;;;;;;;6191704;28;20218;-74
2022/03/19 10:37:03;;;;;;;2.23;1.83;;;;;;;;;;6178763;28;20489;-75
2022/03/19 10:40:37;;;;;;;4.67;1.80;;;;;;;;;;6176921;28;20253;-76
2022/03/19 10:43:57;;;;;;;4.43;1.60;;;;;;;;;;6182121;28;20946;-75
2022/03/19 10:47:22;;;;;;;4.30;1.47;;;;;;;;;;6174519;28;20230;-76
2022/03/19 10:50:44;;;;;;;5.37;1.63;;;;;;;;;;6175430;28;20237;-76
2022/03/19 10:54:05;;;;;;;4.60;1.63;;;;;;;;;;6163989;28;20226;-76
2022/03/19 10:57:26;;;;;;;4.15;1.33;;;;;;;;;;6172985;28;20537;-75
2022/03/19 11:00:48;;;;;;;3.25;1.40;;;;;;;;;;6165270;28;20616;-76
2022/03/19 11:04:11;;;;;;;1.75;1.25;;;;;;;;;;6177354;28;20230;-77
2022/03/19 11:07:34;;;;;;;2.92;1.73;;;;;;;;;;6176282;28;20676;-76
2022/03/19 11:10:57;;;;;;;2.65;1.50;;;;;;;;;;6169790;28;20238;-76
2022/03/19 11:14:23;;;;;;;3.38;1.85;;;;;;;;;;6170455;28;20620;-77
2022/03/19 11:17:45;;;;;;;3.20;1.50;;;;;;;;;;6178457;28;20543;-78
2022/03/19 11:21:07;;;;;;;2.50;1.42;;;;;;;;;;6165679;28;20608;-76
2022/03/19 11:24:33;;;;;;;3.42;1.80;;;;;;;;;;6174943;28;20253;-77
2022/03/19 11:27:57;;;;;;;4.43;1.60;;;;;;;;;;6174705;28;20819;-76
2022/03/19 11:31:25;;;;;;;2.95;1.60;;;;;;;;;;6181526;28;20237;-76
2022/03/19 11:34:48;;;;;;;3.22;1.48;;;;;;;;;;6172592;28;20311;-75
2022/03/19 11:38:11;;;;;;;2.83;1.85;;;;;;;;;;6179265;28;20307;-76
2022/03/19 11:41:36;;;;;;;3.58;1.60;;;;;;;;;;6179003;28;20270;-77
2022/03/19 11:44:57;;;;;;;5.20;1.73;;;;;;;;;;6170077;28;20234;-77
2022/03/19 11:48:44;;;;;;;2.25;1.50;;;;;;;;;;6175351;28;20230;-76
2022/03/19 11:52:06;;;;;;;4.53;2.42;;;;;;;;;;6171943;28;20230;-77
2022/03/19 11:55:29;;;;;;;4.72;1.50;;;;;;;;;;6171689;28;20255;-78
2022/03/19 11:58:52;;;;;;;5.03;1.92;;;;;;;;;;6172191;28;20721;-76
2022/03/19 12:02:14;;;;;;;4.90;1.85;;;;;;;;;;6173682;28;20309;-77
2022/03/19 12:05:36;;;;;;;3.20;1.58;;;;;;;;;;6170038;28;20225;-78
2022/03/19 12:08:59;;;;;;;4.22;1.92;;;;;;;;;;6171758;28;20615;-77
2022/03/19 12:12:24;;;;;;;3.83;2.22;;;;;;;;;;6180514;28;20489;-78
2022/03/19 12:15:50;;;;;;;2.72;2.28;;;;;;;;;;6168330;28;20328;-77
2022/03/19 12:19:11;;;;;;;3.95;1.80;;;;;;;;;;6174505;28;20229;-78
2022/03/19 12:22:35;;;;;;;3.35;1.75;;;;;;;;;;6178418;28;20226;-77
2022/03/19 12:26:02;;;;;;;2.80;1.67;;;;;;;;;;6174053;28;20249;-77
2022/03/19 12:29:25;;;;;;;2.15;1.70;;;;;;;;;;6178250;28;20234;-77
2022/03/19 12:32:54;;;;;;;4.13;2.20;;;;;;;;;;6174850;28;20221;-78
2022/03/19 12:36:19;;;;;;;2.35;1.70;;;;;;;;;;6176555;28;20234;-78
2022/03/19 12:39:40;;;;;;;2.45;1.50;;;;;;;;;;6171621;28;20225;-77
2022/03/19 12:43:03;;;;;;;3.33;2.47;;;;;;;;;;6179438;28;20234;-79
2022/03/19 12:46:26;;;;;;;2.90;1.45;;;;;;;;;;6157313;28;20230;-81
2022/03/19 12:49:53;;;;;;;2.17;1.45;;;;;;;;;;6175706;28;20282;-78
2022/03/19 12:53:14;;;;;;;4.10;2.08;;;;;;;;;;6174610;28;20237;-79
2022/03/19 12:56:38;;;;;;;3.10;1.50;;;;;;;;;;6159757;28;20241;-78
2022/03/19 12:59:59;;;;;;;5.60;1.50;;;;;;;;;;6173455;28;20215;-79
2022/03/19 13:03:29;;;;;;;3.70;2.03;;;;;;;;;;6170802;28;20313;-80
2022/03/19 13:06:51;;;;;;;2.00;1.33;;;;;;;;;;6174613;28;20237;-79
2022/03/19 13:10:16;;;;;;;4.28;1.73;;;;;;;;;;6175499;28;21527;-81
2022/03/19 13:13:38;;;;;;;3.63;2.15;;;;;;;;;;6164436;28;20298;-79
2022/03/19 13:17:00;;;;;;;2.90;2.00;;;;;;;;;;6169750;28;20241;-81
2022/03/19 13:20:21;;;;;;;2.53;2.00;;;;;;;;;;6165604;28;20231;-80
2022/03/19 13:23:43;;;;;;;2.95;2.00;;;;;;;;;;6162980;28;20233;-79
2022/03/19 13:27:05;;;;;;;3.03;1.88;;;;;;;;;;6168395;28;20242;-78
2022/03/19 13:30:26;;;;;;;3.17;1.95;;;;;;;;;;6179171;28;20698;-78
2022/03/19 13:33:47;;;;;;;2.97;2.28;;;;;;;;;;6179163;28;20596;-78
2022/03/19 13:37:09;;;;;;;2.50;2.15;;;;;;;;;;6176091;28;20257;-81
2022/03/19 13:40:31;;;;;;;2.97;2.05;;;;;;;;;;6169658;28;20234;-78
2022/03/19 13:43:52;;;;;;;2.22;1.98;;;;;;;;;;6176113;28;20238;-83
2022/03/19 13:47:17;;;;;;;4.28;2.33;;;;;;;;;;6160996;28;20237;-84
2022/03/19 13:50:41;;;;;;;4.57;2.53;;;;;;;;;;6169996;28;20322;-84
2022/03/19 13:54:02;;;;;;;4.00;2.33;;;;;;;;;;6171321;28;20954;-83
2022/03/19 13:57:29;;;;;;;3.72;2.40;;;;;;;;;;6171488;28;20241;-83
2022/03/19 14:00:50;;;;;;;3.08;2.40;;;;;;;;;;6169547;28;20333;-83
2022/03/19 14:04:18;;;;;;;2.80;2.55;;;;;;;;;;6157698;28;20221;-82
2022/03/19 14:07:41;;;;;;;4.00;3.63;;;;;;;;;;6177338;28;20217;-83
2022/03/19 14:11:10;;;;;;;3.13;2.65;;;;;;;;;;6168547;28;20230;-86
2022/03/19 14:14:37;;;;;;;3.35;3.00;;;;;;;;;;6149805;28;20229;-87
2022/03/19 14:18:00;;;;;;;3.40;2.40;;;;;;;;;;6161186;28;20261;-83
2022/03/19 14:21:21;;;;;;;3.67;2.85;;;;;;;;;;6152971;28;21149;-80
2022/03/19 14:24:42;;;;;;;4.60;3.20;;;;;;;;;;6165242;28;20230;-84
2022/03/19 14:28:08;;;;;;;4.45;3.80;;;;;;;;;;6164183;28;20567;-84
2022/03/19 14:31:31;;;;;;;5.47;3.35;;;;;;;;;;6150047;28;20238;-82
2022/03/19 14:34:52;;;;;;;3.58;3.33;;;;;;;;;;6162780;28;20544;-84
2022/03/19 14:38:17;;;;;;;3.40;2.72;;;;;;;;;;6178143;28;20246;-89
2022/03/19 14:41:38;;;;;;;2.97;2.78;;;;;;;;;;6166651;28;20561;-87
2022/03/19 14:45:01;;;;;;;3.47;2.92;;;;;;;;;;6168169;28;20252;-87
2022/03/19 14:48:25;;;;;;;4.45;3.75;;;;;;;;;;6185114;28;20255;-85
2022/03/19 14:51:49;;;;;;;3.88;3.58;;;;;;;;;;6148359;28;20229;-89
2022/03/19 14:55:13;;;;;;;2.88;2.63;;;;;;;;;;6179162;28;20616;-89
2022/03/19 14:58:37;;;;;;;4.93;4.40;;;;;;;;;;6176402;28;20615;-88
2022/03/19 15:02:01;;;;;;;5.38;3.33;;;;;;;;;;6170303;28;20234;-88
2022/03/19 15:05:24;;;;;;;3.40;3.10;;;;;;;;;;6183303;28;20266;-85
2022/03/19 15:08:45;;;;;;;5.63;4.13;;;;;;;;;;6181911;28;20586;-86
2022/03/19 15:12:07;;;;;;;4.73;4.23;;;;;;;;;;6181094;28;20537;-87
2022/03/19 15:15:29;;;;;;;5.07;3.53;;;;;;;;;;6185002;28;20234;-84
2022/03/19 15:18:51;;;;;;;3.90;3.60;;;;;;;;;;6168410;28;20274;-83
2022/03/19 15:22:17;;;;;;;4.27;3.70;;;;;;;;;;6183669;28;20233;-85
2022/03/19 15:25:38;;;;;;;5.00;4.00;;;;;;;;;;6152537;28;20230;-86
2022/03/19 15:28:58;;;;;;;3.93;3.57;;;;;;;;;;6183436;28;20233;-85
2022/03/19 15:32:27;;;;;;;4.00;3.63;;;;;;;;;;6180637;28;20226;-92
2022/03/19 15:35:48;;;;;;;3.97;3.40;;;;;;;;;;6157643;28;20498;-86
2022/03/19 15:39:12;;;;;;;4.53;3.80;;;;;;;;;;6184143;28;20227;-86
2022/03/19 15:42:36;;;;;;;4.20;3.77;;;;;;;;;;6186251;28;20238;-85
2022/03/19 15:45:57;;;;;;;3.50;3.10;;;;;;;;;;6169136;28;20234;-86
2022/03/19 15:49:18;;;;;;;5.17;3.90;;;;;;;;;;6175040;28;21442;-84
2022/03/19 15:52:39;;;;;;;3.33;3.03;;;;;;;;;;6175099;28;20241;-87
2022/03/19 15:56:02;;;;;;;3.53;3.13;;;;;;;;;;6177340;28;20237;-83
2022/03/19 15:59:23;;;;;;;3.43;3.07;;;;;;;;;;6174870;28;20665;-82
2022/03/19 16:02:44;;;;;;;6.33;3.30;;;;;;;;;;6178600;28;20324;-82
2022/03/19 16:06:05;;;;;;;3.40;3.10;;;;;;;;;;6157157;28;20247;-77
2022/03/19 16:09:26;;;;;;;5.10;3.80;;;;;;;;;;6165309;28;20241;-86
2022/03/19 16:12:48;;;;;;;4.87;4.47;;;;;;;;;;6164765;28;20233;-85
2022/03/19 16:19:45;;;;;;;4.57;3.60;;;;;;;;;;6174617;28;20237;-84
2022/03/19 16:23:09;;;;;;;4.83;3.57;;;;;;;;;;6171173;28;20250;-85
2022/03/19 16:26:30;;;;;;;4.13;3.60;;;;;;;;;;6170297;28;20241;-88
2022/03/19 16:29:53;;;;;;;4.80;4.40;;;;;;;;;;6177730;28;20225;-81
2022/03/19 16:33:17;;;;;;;5.07;4.07;;;;;;;;;;6171299;28;20495;-87
2022/03/19 16:36:49;;;;;;;5.13;3.00;;;;;;;;;;6174278;28;20226;-85
2022/03/19 16:40:12;;;;;;;3.63;3.13;;;;;;;;;;6177390;28;20603;-86
2022/03/19 16:43:37;;;;;;;4.50;4.10;;;;;;;;;;6149345;28;20328;-90
2022/03/19 16:46:59;;;;;;;5.77;3.60;;;;;;;;;;6164960;28;20230;-85
2022/03/19 16:50:20;;;;;;;5.03;3.50;;;;;;;;;;6176267;28;20230;-87
2022/03/19 16:53:50;;;;;;;5.20;4.70;;;;;;;;;;6177783;28;20234;-88
2022/03/19 16:57:17;;;;;;;6.00;4.97;;;;;;;;;;6183347;28;20238;-90
2022/03/19 17:00:45;;;;;;;4.60;4.17;;;;;;;;;;6161929;28;20245;-87
2022/03/19 17:04:10;;;;;;;4.33;3.90;;;;;;;;;;6173702;28;20222;-88
2022/03/19 17:07:34;;;;;;;5.07;4.37;;;;;;;;;;6154557;28;20229;-86
2022/03/19 17:10:57;;;;;;;4.33;3.13;;;;;;;;;;6175569;28;20289;-88
2022/03/19 17:14:17;;;;;;;3.80;3.23;;;;;;;;;;6158509;28;20607;-80
2022/03/19 17:17:38;;;;;;;11.00;7.37;;;;;;;;;;6173050;28;20233;-75
2022/03/19 17:21:03;;;;;;;111.63;91.80;;;;;;;;;;6173247;28;20261;-90
2022/03/19 17:24:23;;;;;;;376.23;340.03;;;;;;;;;;6166530;28;20229;-79
2022/03/19 17:27:44;;;;;;;775.00;697.87;;;;;;;;;;6179965;28;20233;-82
2022/03/19 17:31:06;;;;;;;683.67;593.80;;;;;;;;;;6173641;28;20293;-81
2022/03/19 17:34:27;;;;;;;826.20;739.73;;;;;;;;;;6175871;28;20329;-82
2022/03/19 17:37:49;;;;;;;1500.77;999.90;;;;;;;;;;6181704;28;20229;-85
2022/03/19 17:41:10;;;;;;;161.77;146.33;;;;;;;;;;6171315;28;20672;-78
2022/03/19 17:44:31;;;;;;;8.53;7.30;;;;;;;;;;6176866;28;20238;-80
2022/03/19 17:47:52;;;;;;;6.07;5.10;;;;;;;;;;6179255;28;20233;-79
2022/03/19 17:51:13;;;;;;;5.03;4.53;;;;;;;;;;6176779;28;20624;-81
2022/03/19 17:54:35;;;;;;;6.70;5.23;;;;;;;;;;6174390;28;20604;-82
2022/03/19 17:57:57;;;;;;;5.90;4.00;;;;;;;;;;6182499;28;20233;-80
2022/03/19 18:01:18;;;;;;;7.23;5.77;;;;;;;;;;6176339;28;20619;-80
2022/03/19 18:04:39;;;;;;;8.53;7.33;;;;;;;;;;6184652;28;20600;-79
2022/03/19 18:07:59;;;;;;;6.00;5.40;;;;;;;;;;6179595;28;20226;-79
2022/03/19 18:11:22;;;;;;;11.03;6.97;;;;;;;;;;6177835;28;20233;-79
2022/03/19 18:14:43;;;;;;;6.57;4.93;;;;;;;;;;6167288;28;20255;-79
2022/03/19 18:18:03;;;;;;;8.73;6.70;;;;;;;;;;6180911;28;20238;-80
2022/03/19 18:21:24;;;;;;;7.37;6.63;;;;;;;;;;6180709;28;20234;-81
2022/03/19 18:24:45;;;;;;;5.00;4.50;;;;;;;;;;6178129;28;20730;-79
2022/03/19 18:28:07;;;;;;;7.53;5.80;;;;;;;;;;6178437;28;20257;-80
2022/03/19 18:31:28;;;;;;;6.33;5.73;;;;;;;;;;6178072;28;20229;-80
2022/03/19 18:34:50;;;;;;;6.60;5.97;;;;;;;;;;6177957;28;20628;-81
2022/03/19 18:38:11;;;;;;;7.37;6.67;;;;;;;;;;6173631;28;20245;-80
2022/03/19 18:41:32;;;;;;;7.73;6.20;;;;;;;;;;6177917;28;20233;-79
2022/03/19 18:44:54;;;;;;;8.10;5.50;;;;;;;;;;6180804;28;20218;-81
2022/03/19 18:48:15;;;;;;;11.50;6.47;;;;;;;;;;6165050;28;20230;-80
2022/03/19 18:51:36;;;;;;;6.67;5.03;;;;;;;;;;6181045;28;20572;-80
2022/03/19 18:54:57;;;;;;;5.53;5.03;;;;;;;;;;6182600;28;20603;-81
2022/03/19 18:58:18;;;;;;;8.43;5.00;;;;;;;;;;6180147;28;20230;-80
2022/03/19 19:01:41;;;;;;;6.87;5.77;;;;;;;;;;6171215;28;20222;-80
2022/03/19 19:05:02;;;;;;;7.73;5.90;;;;;;;;;;6166039;28;20235;-80
2022/03/19 19:08:23;;;;;;;7.70;5.23;;;;;;;;;;6176664;28;20226;-81
2022/03/19 19:11:44;;;;;;;8.83;5.77;;;;;;;;;;6179021;28;20659;-80
2022/03/19 19:15:07;;;;;;;6.47;5.80;;;;;;;;;;6174309;28;21468;-80
2022/03/19 19:18:29;;;;;;;7.40;6.20;;;;;;;;;;6175840;28;20237;-79
2022/03/19 19:21:50;;;;;;;7.40;6.20;;;;;;;;;;6176829;28;20563;-79
2022/03/19 19:25:11;;;;;;;6.87;5.60;;;;;;;;;;6167166;28;20222;-80
2022/03/19 19:28:32;;;;;;;6.57;5.97;;;;;;;;;;6178588;28;20844;-80
2022/03/19 19:31:53;;;;;;;10.50;7.53;;;;;;;;;;6175149;28;20238;-80
2022/03/19 19:35:16;;;;;;;10.67;7.53;;;;;;;;;;6168876;28;20226;-79
2022/03/19 19:38:37;;;;;;;8.77;5.83;;;;;;;;;;6181022;28;20234;-79
2022/03/19 19:41:58;;;;;;;6.47;5.33;;;;;;;;;;6178473;28;20385;-80
2022/03/19 19:45:19;;;;;;;5.93;5.17;;;;;;;;;;6177412;28;20234;-80
2022/03/19 19:48:40;;;;;;;9.33;7.40;;;;;;;;;;6180534;28;20229;-78
2022/03/19 19:52:03;;;;;;;7.03;5.77;;;;;;;;;;6178893;28;20317;-80
2022/03/19 19:55:24;;;;;;;7.37;5.73;;;;;;;;;;6181260;28;20230;-81
2022/03/19 19:58:45;;;;;;;7.13;5.40;;;;;;;;;;6177249;28;20250;-80
2022/03/19 20:02:06;;;;;;;9.90;8.00;;;;;;;;;;6172090;28;20261;-81
2022/03/19 20:05:28;;;;;;;8.87;6.70;;;;;;;;;;6180618;28;20227;-78
2022/03/19 20:08:50;;;;;;;9.73;6.40;;;;;;;;;;6176094;28;20238;-79
2022/03/19 20:12:11;;;;;;;9.60;7.30;;;;;;;;;;6171812;28;20234;-79
2022/03/19 20:15:34;;;;;;;6.00;5.37;;;;;;;;;;6176186;28;20238;-79
2022/03/19 20:18:54;;;;;;;8.93;6.73;;;;;;;;;;6180899;28;20515;-80
2022/03/19 20:22:15;;;;;;;5.70;4.90;;;;;;;;;;6175756;28;20265;-80
2022/03/19 20:25:38;;;;;;;17.13;8.33;;;;;;;;;;6155418;28;20234;-80
2022/03/19 20:28:59;;;;;;;7.47;6.03;;;;;;;;;;6159813;28;20637;-80
2022/03/19 20:32:19;;;;;;;7.73;6.93;;;;;;;;;;6175999;28;20604;-81
2022/03/19 20:35:41;;;;;;;6.63;5.90;;;;;;;;;;6179139;28;20222;-79